createdAt,value
2019-05-23T00:00:39.608Z,12.56
2019-05-23T00:01:39.597Z,12.58
2019-05-23T00:02:39.587Z,12.69
2019-05-23T00:03:39.578Z,12.69
2019-05-23T00:04:39.583Z,12.61
2019-05-23T00:05:39.561Z,12.58
2019-05-23T00:06:39.597Z,12.55
2019-05-23T00:07:39.530Z,12.56
2019-05-23T00:08:39.529Z,12.56
2019-05-23T00:09:39.505Z,12.56
2019-05-23T00:10:39.510Z,12.58
2019-05-23T00:11:40.374Z,12.56
2019-05-23T00:12:39.483Z,12.51
2019-05-23T00:13:39.474Z,12.49
2019-05-23T00:14:39.464Z,12.48
2019-05-23T00:15:39.465Z,12.43
2019-05-23T00:16:39.439Z,12.46
2019-05-23T00:17:39.424Z,12.48
2019-05-23T00:18:39.412Z,12.48
2019-05-23T00:19:39.404Z,12.41
2019-05-23T00:20:39.424Z,12.51
2019-05-23T00:21:39.382Z,12.46
2019-05-23T00:22:39.374Z,12.49
2019-05-23T00:23:39.376Z,12.49
2019-05-23T00:24:39.368Z,12.46
2019-05-23T00:25:39.343Z,12.43
2019-05-23T00:26:39.350Z,12.40
2019-05-23T00:27:39.319Z,12.46
2019-05-23T00:28:39.309Z,12.38
2019-05-23T00:29:40.492Z,12.41
2019-05-23T00:30:39.284Z,12.36
2019-05-23T00:31:39.292Z,12.36
2019-05-23T00:32:39.266Z,12.34
2019-05-23T00:33:39.257Z,12.36
2019-05-23T00:34:39.264Z,12.30
2019-05-23T00:35:39.234Z,12.30
2019-05-23T00:36:39.230Z,12.31
2019-05-23T00:37:39.212Z,12.33
2019-05-23T00:38:39.203Z,12.30
2019-05-23T00:39:39.190Z,12.22
2019-05-23T00:40:39.179Z,12.18
2019-05-23T00:41:39.187Z,12.18
2019-05-23T00:42:39.153Z,12.26
2019-05-23T00:43:39.152Z,12.21
2019-05-23T00:44:39.138Z,12.21
2019-05-23T00:45:39.131Z,12.29
2019-05-23T00:46:39.117Z,12.15
2019-05-23T00:47:39.126Z,12.22
2019-05-23T00:48:39.090Z,12.22
2019-05-23T00:49:39.079Z,12.21
2019-05-23T00:50:39.071Z,12.19
2019-05-23T00:51:39.065Z,12.25
2019-05-23T00:52:39.067Z,12.25
2019-05-23T00:53:39.040Z,12.21
2019-05-23T00:54:39.033Z,12.21
2019-05-23T00:55:39.021Z,12.18
2019-05-23T00:56:39.036Z,12.25
2019-05-23T00:57:39.013Z,12.25
2019-05-23T00:58:39.025Z,12.19
2019-05-23T00:59:38.970Z,12.18
2019-05-23T01:00:38.964Z,12.23
2019-05-23T01:01:38.963Z,12.26
2019-05-23T01:02:38.967Z,12.26
2019-05-23T01:03:38.937Z,12.23
2019-05-23T01:04:38.933Z,12.21
2019-05-23T01:05:38.914Z,12.13
2019-05-23T01:06:38.912Z,12.21
2019-05-23T01:07:38.887Z,12.21
2019-05-23T01:08:38.891Z,12.30
2019-05-23T01:09:38.874Z,12.25
2019-05-23T01:10:38.909Z,12.18
2019-05-23T01:11:38.850Z,12.23
2019-05-23T01:12:38.838Z,12.21
2019-05-23T01:13:38.873Z,12.21
2019-05-23T01:14:38.852Z,12.23
2019-05-23T01:15:38.811Z,12.16
2019-05-23T01:16:38.798Z,12.21
2019-05-23T01:17:38.790Z,12.21
2019-05-23T01:18:38.790Z,12.16
2019-05-23T01:19:38.765Z,12.15
2019-05-23T01:20:38.751Z,12.16
2019-05-23T01:21:38.748Z,12.18
2019-05-23T01:22:38.735Z,12.21
2019-05-23T01:23:38.748Z,12.16
2019-05-23T01:24:38.713Z,12.16
2019-05-23T01:25:38.712Z,12.16
2019-05-23T01:26:38.685Z,12.07
2019-05-23T01:27:38.690Z,12.03
2019-05-23T01:28:38.683Z,12.15
2019-05-23T01:29:38.729Z,12.03
2019-05-23T01:30:38.649Z,12.00
2019-05-23T01:31:38.632Z,12.01
2019-05-23T01:32:38.623Z,12.16
2019-05-23T01:33:38.621Z,12.05
2019-05-23T01:34:38.681Z,12.00
2019-05-23T01:35:38.595Z,12.05
2019-05-23T01:36:38.582Z,12.00
2019-05-23T01:37:38.574Z,12.04
2019-05-23T01:38:38.568Z,12.03
2019-05-23T01:39:38.567Z,12.00
2019-05-23T01:40:38.537Z,12.08
2019-05-23T01:41:38.535Z,12.07
2019-05-23T01:42:38.520Z,12.04
2019-05-23T01:43:38.507Z,12.11
2019-05-23T01:44:38.500Z,12.00
2019-05-23T01:45:38.517Z,11.97
2019-05-23T01:46:38.484Z,11.96
2019-05-23T01:47:38.484Z,11.94
2019-05-23T01:48:38.468Z,11.97
2019-05-23T01:49:38.467Z,11.93
2019-05-23T01:50:38.450Z,11.94
2019-05-23T01:51:38.422Z,11.98
2019-05-23T01:52:38.410Z,11.97
2019-05-23T01:53:38.393Z,11.96
2019-05-23T01:54:38.384Z,11.98
2019-05-23T01:55:38.407Z,11.98
2019-05-23T01:56:38.372Z,11.94
2019-05-23T01:57:38.356Z,11.94
2019-05-23T01:58:38.348Z,11.96
2019-05-23T01:59:38.338Z,11.90
2019-05-23T02:00:38.325Z,11.98
2019-05-23T02:01:38.327Z,11.90
2019-05-23T02:02:38.318Z,11.88
2019-05-23T02:03:38.293Z,11.94
2019-05-23T02:04:38.279Z,11.85
2019-05-23T02:05:38.264Z,11.88
2019-05-23T02:06:38.266Z,11.81
2019-05-23T02:07:38.251Z,11.84
2019-05-23T02:08:38.253Z,11.81
2019-05-23T02:09:38.232Z,11.84
2019-05-23T02:10:38.217Z,11.84
2019-05-23T02:11:38.221Z,11.87
2019-05-23T02:12:38.197Z,11.75
2019-05-23T02:13:38.191Z,11.81
2019-05-23T02:14:38.175Z,11.81
2019-05-23T02:15:38.161Z,11.81
2019-05-23T02:16:38.153Z,11.79
2019-05-23T02:17:38.151Z,11.82
2019-05-23T02:18:38.129Z,11.82
2019-05-23T02:19:38.122Z,11.82
2019-05-23T02:20:38.113Z,11.84
2019-05-23T02:21:38.101Z,11.74
2019-05-23T02:22:38.110Z,11.75
2019-05-23T02:23:38.073Z,11.72
2019-05-23T02:24:38.062Z,11.78
2019-05-23T02:25:38.052Z,11.67
2019-05-23T02:26:38.043Z,11.67
2019-05-23T02:27:38.047Z,11.57
2019-05-23T02:28:38.047Z,11.56
2019-05-23T02:29:38.016Z,11.63
2019-05-23T02:30:38.004Z,11.60
2019-05-23T02:31:38.000Z,11.57
2019-05-23T02:32:37.988Z,11.63
2019-05-23T02:33:37.995Z,11.62
2019-05-23T02:34:37.961Z,11.53
2019-05-23T02:35:37.949Z,11.59
2019-05-23T02:36:37.938Z,11.49
2019-05-23T02:37:37.924Z,11.54
2019-05-23T02:38:38.920Z,11.51
2019-05-23T02:39:37.938Z,11.45
2019-05-23T02:40:37.911Z,11.41
2019-05-23T02:41:37.886Z,11.39
2019-05-23T02:42:37.878Z,11.38
2019-05-23T02:43:37.861Z,11.39
2019-05-23T02:44:37.862Z,11.39
2019-05-23T02:45:37.889Z,11.39
2019-05-23T02:46:37.831Z,11.38
2019-05-23T02:47:37.818Z,11.42
2019-05-23T02:48:37.818Z,11.38
2019-05-23T02:49:37.830Z,11.42
2019-05-23T02:50:37.786Z,11.39
2019-05-23T02:51:37.784Z,11.41
2019-05-23T02:52:37.770Z,11.44
2019-05-23T02:53:37.764Z,11.42
2019-05-23T02:54:37.763Z,11.39
2019-05-23T02:55:37.728Z,11.39
2019-05-23T02:56:37.728Z,11.42
2019-05-23T02:57:37.708Z,11.46
2019-05-23T02:58:37.699Z,11.36
2019-05-23T02:59:37.715Z,11.36
2019-05-23T03:00:53.404Z,11.38
2019-05-23T03:01:38.662Z,11.42
2019-05-23T03:02:37.663Z,11.42
2019-05-23T03:03:37.649Z,11.27
2019-05-23T03:04:37.636Z,11.35
2019-05-23T03:05:37.642Z,11.31
2019-05-23T03:06:37.626Z,11.31
2019-05-23T03:07:37.601Z,11.36
2019-05-23T03:08:37.593Z,11.36
2019-05-23T03:09:37.588Z,11.39
2019-05-23T03:10:37.597Z,11.39
2019-05-23T03:11:37.570Z,11.42
2019-05-23T03:12:37.554Z,11.39
2019-05-23T03:13:37.540Z,11.36
2019-05-23T03:14:37.529Z,11.35
2019-05-23T03:15:37.513Z,11.38
2019-05-23T03:16:37.514Z,11.39
2019-05-23T03:17:37.506Z,11.39
2019-05-23T03:18:37.492Z,11.41
2019-05-23T03:19:37.475Z,11.36
2019-05-23T03:20:37.469Z,11.39
2019-05-23T03:21:37.464Z,11.35
2019-05-23T03:22:37.441Z,11.35
2019-05-23T03:23:37.433Z,11.35
2019-05-23T03:24:37.421Z,11.28
2019-05-23T03:25:37.412Z,11.36
2019-05-23T03:26:37.417Z,11.36
2019-05-23T03:27:37.389Z,11.33
2019-05-23T03:28:37.374Z,11.27
2019-05-23T03:29:37.366Z,11.24
2019-05-23T03:30:37.353Z,11.21
2019-05-23T03:31:37.381Z,11.21
2019-05-23T03:32:39.581Z,11.16
2019-05-23T03:33:37.321Z,11.17
2019-05-23T03:34:37.313Z,11.16
2019-05-23T03:35:37.315Z,11.17
2019-05-23T03:36:37.310Z,11.13
2019-05-23T03:37:37.294Z,11.09
2019-05-23T03:38:37.271Z,11.06
2019-05-23T03:39:37.255Z,11.09
2019-05-23T03:40:37.247Z,11.02
2019-05-23T03:41:37.241Z,11.03
2019-05-23T03:42:37.249Z,11.01
2019-05-23T03:43:37.218Z,10.99
2019-05-23T03:44:37.216Z,11.01
2019-05-23T03:45:39.711Z,10.94
2019-05-23T03:46:37.195Z,10.93
2019-05-23T03:47:37.171Z,10.93
2019-05-23T03:48:37.173Z,10.99
2019-05-23T03:49:37.165Z,10.88
2019-05-23T03:50:37.161Z,10.93
2019-05-23T03:51:37.129Z,10.88
2019-05-23T03:52:37.118Z,10.91
2019-05-23T03:53:37.120Z,10.86
2019-05-23T03:54:37.102Z,10.90
2019-05-23T03:55:37.099Z,10.86
2019-05-23T03:56:37.098Z,10.81
2019-05-23T03:57:37.073Z,10.88
2019-05-23T03:58:37.094Z,10.86
2019-05-23T03:59:37.046Z,10.87
2019-05-23T04:00:37.050Z,10.80
2019-05-23T04:01:47.766Z,10.76
2019-05-23T04:02:38.023Z,10.83
2019-05-23T04:03:39.857Z,10.80
2019-05-23T04:04:37.013Z,10.75
2019-05-23T04:05:36.989Z,10.73
2019-05-23T04:06:36.969Z,10.73
2019-05-23T04:07:36.972Z,10.72
2019-05-23T04:08:36.950Z,10.62
2019-05-23T04:09:36.962Z,10.55
2019-05-23T04:10:36.931Z,10.58
2019-05-23T04:11:36.932Z,10.51
2019-05-23T04:12:36.901Z,10.55
2019-05-23T04:13:36.898Z,10.54
2019-05-23T04:14:36.890Z,10.55
2019-05-23T04:15:36.889Z,10.46
2019-05-23T04:16:36.865Z,10.43
2019-05-23T04:17:36.855Z,10.34
2019-05-23T04:18:36.843Z,10.43
2019-05-23T04:19:36.835Z,10.38
2019-05-23T04:20:36.829Z,10.32
2019-05-23T04:21:36.812Z,10.32
2019-05-23T04:22:36.808Z,10.36
2019-05-23T04:23:36.790Z,10.28
2019-05-23T04:24:36.779Z,10.36
2019-05-23T04:25:36.785Z,10.25
2019-05-23T04:26:36.778Z,10.25
2019-05-23T04:27:36.746Z,10.25
2019-05-23T04:28:36.738Z,10.28
2019-05-23T04:29:36.729Z,10.18
2019-05-23T04:30:36.720Z,10.25
2019-05-23T04:31:36.743Z,10.14
2019-05-23T04:32:36.706Z,10.17
2019-05-23T04:33:36.695Z,10.13
2019-05-23T04:34:36.670Z,10.16
2019-05-23T04:35:36.665Z,10.13
2019-05-23T04:36:36.673Z,10.16
2019-05-23T04:37:36.660Z,10.09
2019-05-23T04:38:36.924Z,10.09
2019-05-23T04:39:36.622Z,10.10
2019-05-23T04:40:36.619Z,10.16
2019-05-23T04:41:36.600Z,10.11
2019-05-23T04:42:36.609Z,10.11
2019-05-23T04:43:36.575Z,10.10
2019-05-23T04:44:36.566Z,10.07
2019-05-23T04:45:36.549Z,10.13
2019-05-23T04:46:36.540Z,10.16
2019-05-23T04:47:36.554Z,10.16
2019-05-23T04:48:36.532Z,10.13
2019-05-23T04:49:36.518Z,10.10
2019-05-23T04:50:36.500Z,10.20
2019-05-23T04:51:36.485Z,10.20
2019-05-23T04:52:36.500Z,10.07
2019-05-23T04:53:36.467Z,10.17
2019-05-23T04:54:36.467Z,10.18
2019-05-23T04:55:36.450Z,10.14
2019-05-23T04:56:36.431Z,10.25
2019-05-23T04:57:36.425Z,10.43
2019-05-23T04:58:36.429Z,10.55
2019-05-23T04:59:36.430Z,10.57
2019-05-23T05:00:36.409Z,10.69
2019-05-23T05:01:36.386Z,10.73
2019-05-23T05:02:36.373Z,10.76
2019-05-23T05:03:36.385Z,10.87
2019-05-23T05:04:36.348Z,10.86
2019-05-23T05:05:36.337Z,10.90
2019-05-23T05:06:36.326Z,10.99
2019-05-23T05:07:36.322Z,10.95
2019-05-23T05:08:36.307Z,11.06
2019-05-23T05:09:36.305Z,11.12
2019-05-23T05:10:36.280Z,11.13
2019-05-23T05:11:36.283Z,11.19
2019-05-23T05:12:36.265Z,11.21
2019-05-23T05:13:36.258Z,11.23
2019-05-23T05:14:36.259Z,11.28
2019-05-23T05:15:36.227Z,11.38
2019-05-23T05:16:36.215Z,11.33
2019-05-23T05:17:36.208Z,11.39
2019-05-23T05:18:36.193Z,11.51
2019-05-23T05:19:36.200Z,11.44
2019-05-23T05:20:36.179Z,11.49
2019-05-23T05:21:36.171Z,11.41
2019-05-23T05:22:36.186Z,11.46
2019-05-23T05:23:36.138Z,11.49
2019-05-23T05:24:39.974Z,11.51
2019-05-23T05:25:36.123Z,11.49
2019-05-23T05:26:36.114Z,11.56
2019-05-23T05:27:36.103Z,11.48
2019-05-23T05:28:36.090Z,11.62
2019-05-23T05:29:36.082Z,11.67
2019-05-23T05:30:36.083Z,11.66
2019-05-23T05:31:36.059Z,11.72
2019-05-23T05:32:44.718Z,11.84
2019-05-23T05:33:37.188Z,11.82
2019-05-23T05:34:36.027Z,11.94
2019-05-23T05:35:36.056Z,12.21
2019-05-23T05:36:36.003Z,12.59
2019-05-23T05:37:35.990Z,13.03
2019-05-23T05:38:35.983Z,13.25
2019-05-23T05:39:35.975Z,13.69
2019-05-23T05:40:35.995Z,14.09
2019-05-23T05:41:35.957Z,14.41
2019-05-23T05:42:35.939Z,14.75
2019-05-23T05:43:35.949Z,15.03
2019-05-23T05:44:35.924Z,15.23
2019-05-23T05:45:35.912Z,15.44
2019-05-23T05:46:35.985Z,15.62
2019-05-23T05:47:35.883Z,15.92
2019-05-23T05:48:35.872Z,16.14
2019-05-23T05:49:35.859Z,16.29
2019-05-23T05:50:35.877Z,16.66
2019-05-23T05:51:35.866Z,16.87
2019-05-23T05:52:35.838Z,17.24
2019-05-23T05:53:35.825Z,17.60
2019-05-23T05:54:35.827Z,17.76
2019-05-23T05:55:35.876Z,17.99
2019-05-23T05:56:35.803Z,18.05
2019-05-23T05:57:35.789Z,18.29
2019-05-23T05:58:35.778Z,18.39
2019-05-23T05:59:35.754Z,18.50
2019-05-23T06:00:35.747Z,18.90
2019-05-23T06:01:35.766Z,19.09
2019-05-23T06:02:35.735Z,19.30
2019-05-23T06:03:35.727Z,19.65
2019-05-23T06:04:35.712Z,19.80
2019-05-23T06:05:35.712Z,19.79
2019-05-23T06:06:35.687Z,19.64
2019-05-23T06:07:35.680Z,19.95
2019-05-23T06:08:35.657Z,20.22
2019-05-23T06:09:35.679Z,20.42
2019-05-23T06:10:35.640Z,20.83
2019-05-23T06:11:35.632Z,21.03
2019-05-23T06:12:35.738Z,21.12
2019-05-23T06:13:35.609Z,21.22
2019-05-23T06:14:35.594Z,21.31
2019-05-23T06:15:35.589Z,21.31
2019-05-23T06:16:35.577Z,21.15
2019-05-23T06:17:35.587Z,21.33
2019-05-23T06:18:35.556Z,21.33
2019-05-23T06:19:35.546Z,21.58
2019-05-23T06:20:35.525Z,21.55
2019-05-23T06:21:35.521Z,21.75
2019-05-23T06:22:35.505Z,21.86
2019-05-23T06:23:35.514Z,21.94
2019-05-23T06:24:44.572Z,21.99
2019-05-23T06:25:36.475Z,21.93
2019-05-23T06:26:35.466Z,21.98
2019-05-23T06:27:35.455Z,22.01
2019-05-23T06:28:35.453Z,21.73
2019-05-23T06:29:35.434Z,21.81
2019-05-23T06:30:35.432Z,21.83
2019-05-23T06:31:35.408Z,21.89
2019-05-23T06:32:35.428Z,22.02
2019-05-23T06:33:35.410Z,21.99
2019-05-23T06:34:35.377Z,22.17
2019-05-23T06:35:35.383Z,22.19
2019-05-23T06:36:35.368Z,22.06
2019-05-23T06:37:35.351Z,22.36
2019-05-23T06:38:35.339Z,22.57
2019-05-23T06:39:35.339Z,22.70
2019-05-23T06:40:35.311Z,23.07
2019-05-23T06:41:35.301Z,23.32
2019-05-23T06:42:35.303Z,23.57
2019-05-23T06:43:35.291Z,23.81
2019-05-23T06:44:35.285Z,23.67
2019-05-23T06:45:35.258Z,23.44
2019-05-23T06:46:35.251Z,23.37
2019-05-23T06:47:35.242Z,23.68
2019-05-23T06:48:35.236Z,23.74
2019-05-23T06:49:35.247Z,23.45
2019-05-23T06:50:35.213Z,23.38
2019-05-23T06:51:35.195Z,23.25
2019-05-23T06:52:35.188Z,23.12
2019-05-23T06:53:35.183Z,23.21
2019-05-23T06:54:35.164Z,22.84
2019-05-23T06:55:35.187Z,23.14
2019-05-23T06:56:35.165Z,23.14
2019-05-23T06:57:35.139Z,23.31
2019-05-23T06:58:35.125Z,23.32
2019-05-23T06:59:35.108Z,23.49
2019-05-23T07:00:35.114Z,23.74
2019-05-23T07:01:35.093Z,23.89
2019-05-23T07:02:35.083Z,24.06
2019-05-23T07:03:42.488Z,23.94
2019-05-23T07:04:36.062Z,23.53
2019-05-23T07:05:35.057Z,23.89
2019-05-23T07:06:35.035Z,24.16
2019-05-23T07:07:35.027Z,24.19
2019-05-23T07:08:35.019Z,24.11
2019-05-23T07:09:35.011Z,23.89
2019-05-23T07:10:35.015Z,23.72
2019-05-23T07:11:34.983Z,23.69
2019-05-23T07:12:34.967Z,23.94
2019-05-23T07:13:34.974Z,24.09
2019-05-23T07:14:34.956Z,24.31
2019-05-23T07:15:34.962Z,24.15
2019-05-23T07:16:34.954Z,24.16
2019-05-23T07:17:34.933Z,24.27
2019-05-23T07:18:34.914Z,24.21
2019-05-23T07:19:34.911Z,24.34
2019-05-23T07:20:35.686Z,24.63
2019-05-23T07:21:34.886Z,25.12
2019-05-23T07:22:34.874Z,25.08
2019-05-23T07:23:34.856Z,25.34
2019-05-23T07:24:34.842Z,25.41
2019-05-23T07:25:34.850Z,25.64
2019-05-23T07:26:34.826Z,25.66
2019-05-23T07:27:34.821Z,25.76
2019-05-23T07:28:34.810Z,25.82
2019-05-23T07:29:34.801Z,25.61
2019-05-23T07:30:34.803Z,25.45
2019-05-23T07:31:35.688Z,25.17
2019-05-23T07:32:34.760Z,24.71
2019-05-23T07:33:34.777Z,24.51
2019-05-23T07:34:34.763Z,24.67
2019-05-23T07:35:34.747Z,24.56
2019-05-23T07:36:34.731Z,24.56
2019-05-23T07:37:34.708Z,24.84
2019-05-23T07:38:34.703Z,24.87
2019-05-23T07:39:34.741Z,25.14
2019-05-23T07:40:34.693Z,25.41
2019-05-23T07:41:34.697Z,25.36
2019-05-23T07:42:34.657Z,25.38
2019-05-23T07:43:34.643Z,25.75
2019-05-23T07:44:47.353Z,25.89
2019-05-23T07:45:39.458Z,25.76
2019-05-23T07:46:34.623Z,25.91
2019-05-23T07:47:34.613Z,26.17
2019-05-23T07:48:34.598Z,26.23
2019-05-23T07:49:34.584Z,26.28
2019-05-23T07:50:34.577Z,26.38
2019-05-23T07:51:34.590Z,26.47
2019-05-23T07:52:34.559Z,26.86
2019-05-23T07:53:34.549Z,27.66
2019-05-23T07:54:34.552Z,28.13
2019-05-23T07:55:34.533Z,28.18
2019-05-23T07:56:34.524Z,28.27
2019-05-23T07:57:34.501Z,28.24
2019-05-23T07:58:34.518Z,26.11
2019-05-23T07:59:34.508Z,25.93
2019-05-23T08:00:34.490Z,25.12
2019-05-23T08:01:34.489Z,22.89
2019-05-23T08:02:34.457Z,22.66
2019-05-23T08:03:34.543Z,22.97
2019-05-23T08:04:34.431Z,23.74
2019-05-23T08:05:34.465Z,23.74
2019-05-23T08:06:34.475Z,24.23
2019-05-23T08:07:34.407Z,24.84
2019-05-23T08:08:34.396Z,25.04
2019-05-23T08:09:34.396Z,25.83
2019-05-23T08:10:34.584Z,26.56
2019-05-23T08:11:34.392Z,27.05
2019-05-23T08:12:34.367Z,27.27
2019-05-23T08:13:34.351Z,27.66
2019-05-23T08:14:34.342Z,27.96
2019-05-23T08:15:34.327Z,27.95
2019-05-23T08:16:34.327Z,28.18
2019-05-23T08:17:34.313Z,28.58
2019-05-23T08:18:34.294Z,29.00
2019-05-23T08:19:48.477Z,29.23
2019-05-23T08:20:35.280Z,29.12
2019-05-23T08:21:34.304Z,28.46
2019-05-23T08:22:34.268Z,28.77
2019-05-23T08:23:34.284Z,28.87
2019-05-23T08:24:34.260Z,28.77
2019-05-23T08:25:34.239Z,29.05
2019-05-23T08:26:34.249Z,29.54
2019-05-23T08:27:34.203Z,29.47
2019-05-23T08:28:34.198Z,29.48
2019-05-23T08:29:34.185Z,29.45
2019-05-23T08:30:34.179Z,29.60
2019-05-23T08:31:34.198Z,29.63
2019-05-23T08:32:34.168Z,29.30
2019-05-23T08:33:34.152Z,29.54
2019-05-23T08:34:41.525Z,29.85
2019-05-23T08:35:35.136Z,29.88
2019-05-23T08:36:34.158Z,28.18
2019-05-23T08:37:34.114Z,27.65
2019-05-23T08:38:34.114Z,28.02
2019-05-23T08:39:34.102Z,27.84
2019-05-23T08:40:34.076Z,28.06
2019-05-23T08:41:34.080Z,28.65
2019-05-23T08:42:34.057Z,29.18
2019-05-23T08:43:34.061Z,29.62
2019-05-23T08:44:34.042Z,29.85
2019-05-23T08:45:34.059Z,29.89
2019-05-23T08:46:34.037Z,29.35
2019-05-23T08:47:34.012Z,29.20
2019-05-23T08:48:34.003Z,28.98
2019-05-23T08:49:33.998Z,29.21
2019-05-23T08:50:33.974Z,29.63
2019-05-23T08:51:34.007Z,29.94
2019-05-23T08:52:33.971Z,29.76
2019-05-23T08:53:33.943Z,28.85
2019-05-23T08:54:33.939Z,28.62
2019-05-23T08:55:33.938Z,28.62
2019-05-23T08:56:33.927Z,28.40
2019-05-23T08:57:33.929Z,28.73
2019-05-23T08:58:33.908Z,29.32
2019-05-23T08:59:33.886Z,29.97
2019-05-23T09:00:33.876Z,30.38
2019-05-23T09:01:33.993Z,30.94
2019-05-23T09:02:33.876Z,31.25
2019-05-23T09:03:33.858Z,31.40
2019-05-23T09:04:33.840Z,31.30
2019-05-23T09:05:33.884Z,30.88
2019-05-23T09:06:33.821Z,30.18
2019-05-23T09:07:33.821Z,30.08
2019-05-23T09:08:33.798Z,30.10
2019-05-23T09:09:33.790Z,29.79
2019-05-23T09:10:33.784Z,29.94
2019-05-23T09:11:33.779Z,30.48
2019-05-23T09:12:33.778Z,30.59
2019-05-23T09:13:33.755Z,30.73
2019-05-23T09:14:33.741Z,30.67
2019-05-23T09:15:33.747Z,31.20
2019-05-23T09:16:33.731Z,31.20
2019-05-23T09:17:51.380Z,30.97
2019-05-23T09:18:34.710Z,30.45
2019-05-23T09:19:33.703Z,30.15
2019-05-23T09:20:33.690Z,30.16
2019-05-23T09:21:33.685Z,30.16
2019-05-23T09:22:33.702Z,29.89
2019-05-23T09:23:33.660Z,29.92
2019-05-23T09:24:33.649Z,29.92
2019-05-23T09:25:33.643Z,28.20
2019-05-23T09:26:34.630Z,28.52
2019-05-23T09:27:34.707Z,28.97
2019-05-23T09:28:33.615Z,28.89
2019-05-23T09:29:33.608Z,28.89
2019-05-23T09:30:33.617Z,29.21
2019-05-23T09:31:33.581Z,29.47
2019-05-23T09:32:33.600Z,29.79
2019-05-23T09:33:33.561Z,30.37
2019-05-23T09:34:33.563Z,30.21
2019-05-23T09:35:33.549Z,29.74
2019-05-23T09:36:33.559Z,29.55
2019-05-23T09:37:33.532Z,29.26
2019-05-23T09:38:33.540Z,29.08
2019-05-23T09:39:33.524Z,29.30
2019-05-23T09:40:33.506Z,29.57
2019-05-23T09:41:33.507Z,29.58
2019-05-23T09:42:33.489Z,29.63
2019-05-23T09:43:33.494Z,29.63
2019-05-23T09:44:33.467Z,29.52
2019-05-23T09:45:33.455Z,29.18
2019-05-23T09:46:33.451Z,28.69
2019-05-23T09:47:33.446Z,28.65
2019-05-23T09:48:33.452Z,28.74
2019-05-23T09:49:33.473Z,28.67
2019-05-23T09:50:33.422Z,28.32
2019-05-23T09:51:33.399Z,28.54
2019-05-23T09:52:33.390Z,28.88
2019-05-23T09:53:33.401Z,28.92
2019-05-23T09:54:33.376Z,29.10
2019-05-23T09:55:33.375Z,28.83
2019-05-23T09:56:33.358Z,28.89
2019-05-23T09:57:33.349Z,29.26
2019-05-23T09:58:33.351Z,29.44
2019-05-23T09:59:33.333Z,29.92
2019-05-23T10:00:33.329Z,30.29
2019-05-23T10:01:33.316Z,30.49
2019-05-23T10:02:33.304Z,30.54
2019-05-23T10:03:33.306Z,31.10
2019-05-23T10:04:33.287Z,31.25
2019-05-23T10:05:42.528Z,30.64
2019-05-23T10:06:34.253Z,30.37
2019-05-23T10:07:33.270Z,30.08
2019-05-23T10:08:33.271Z,29.89
2019-05-23T10:09:33.241Z,29.88
2019-05-23T10:10:33.232Z,30.04
2019-05-23T10:11:33.225Z,30.07
2019-05-23T10:12:33.215Z,30.18
2019-05-23T10:13:38.981Z,30.29
2019-05-23T10:14:34.212Z,30.96
2019-05-23T10:15:33.178Z,31.38
2019-05-23T10:16:33.171Z,31.62
2019-05-23T10:17:33.217Z,32.12
2019-05-23T10:18:33.156Z,31.90
2019-05-23T10:19:33.164Z,32.03
2019-05-23T10:20:33.157Z,31.78
2019-05-23T10:21:33.136Z,31.50
2019-05-23T10:22:33.125Z,31.42
2019-05-23T10:23:33.109Z,31.23
2019-05-23T10:24:33.120Z,31.65
2019-05-23T10:25:33.101Z,32.24
2019-05-23T10:26:33.104Z,32.43
2019-05-23T10:27:33.093Z,32.71
2019-05-23T10:28:33.085Z,32.53
2019-05-23T10:29:33.077Z,32.31
2019-05-23T10:30:33.056Z,32.56
2019-05-23T10:31:33.083Z,32.78
2019-05-23T10:32:33.045Z,32.14
2019-05-23T10:33:33.046Z,32.19
2019-05-23T10:34:33.066Z,32.24
2019-05-23T10:35:33.016Z,32.50
2019-05-23T10:36:33.004Z,32.77
2019-05-23T10:37:32.994Z,32.88
2019-05-23T10:38:32.991Z,32.84
2019-05-23T10:39:33.031Z,33.05
2019-05-23T10:40:32.981Z,32.96
2019-05-23T10:41:32.969Z,32.36
2019-05-23T10:42:32.958Z,32.25
2019-05-23T10:43:32.947Z,32.14
2019-05-23T10:44:32.959Z,31.97
2019-05-23T10:45:32.954Z,31.57
2019-05-23T10:46:32.939Z,31.27
2019-05-23T10:47:32.958Z,31.27
2019-05-23T10:48:32.904Z,31.15
2019-05-23T10:49:32.903Z,31.15
2019-05-23T10:50:44.161Z,31.15
2019-05-23T10:51:33.888Z,31.13
2019-05-23T10:52:32.894Z,31.18
2019-05-23T10:53:32.868Z,31.03
2019-05-23T10:54:32.860Z,30.83
2019-05-23T10:55:32.863Z,30.42
2019-05-23T10:56:32.836Z,30.23
2019-05-23T10:57:32.832Z,29.76
2019-05-23T10:58:32.831Z,29.86
2019-05-23T10:59:32.818Z,30.19
2019-05-23T11:00:32.834Z,30.66
2019-05-23T11:01:32.813Z,30.90
2019-05-23T11:02:32.781Z,30.81
2019-05-23T11:03:32.782Z,31.13
2019-05-23T11:04:32.783Z,31.22
2019-05-23T11:05:33.546Z,30.81
2019-05-23T11:06:32.763Z,30.70
2019-05-23T11:07:32.750Z,30.66
2019-05-23T11:08:32.759Z,30.48
2019-05-23T11:09:37.745Z,30.40
2019-05-23T11:10:33.738Z,30.73
2019-05-23T11:11:32.720Z,30.97
2019-05-23T11:12:32.727Z,30.76
2019-05-23T11:13:32.705Z,30.81
2019-05-23T11:14:32.689Z,30.82
2019-05-23T11:15:32.665Z,30.54
2019-05-23T11:16:32.714Z,30.49
2019-05-23T11:17:32.698Z,30.44
2019-05-23T11:18:32.656Z,30.60
2019-05-23T11:19:32.650Z,30.38
2019-05-23T11:20:35.834Z,30.03
2019-05-23T11:21:32.626Z,29.94
2019-05-23T11:22:32.609Z,29.89
2019-05-23T11:23:32.685Z,29.66
2019-05-23T11:24:32.602Z,29.62
2019-05-23T11:25:32.584Z,29.44
2019-05-23T11:26:32.591Z,29.32
2019-05-23T11:27:32.567Z,29.32
2019-05-23T11:28:32.574Z,29.41
2019-05-23T11:29:32.550Z,29.33
2019-05-23T11:30:32.535Z,29.33
2019-05-23T11:31:32.543Z,29.58
2019-05-23T11:32:32.552Z,29.73
2019-05-23T11:33:32.518Z,29.91
2019-05-23T11:34:32.502Z,29.73
2019-05-23T11:35:32.496Z,29.37
2019-05-23T11:36:36.198Z,29.66
2019-05-23T11:37:32.487Z,29.30
2019-05-23T11:38:32.470Z,28.76
2019-05-23T11:39:32.449Z,28.95
2019-05-23T11:40:33.740Z,29.37
2019-05-23T11:41:32.458Z,29.49
2019-05-23T11:42:32.426Z,29.67
2019-05-23T11:43:32.428Z,29.91
2019-05-23T11:44:32.426Z,30.23
2019-05-23T11:45:32.406Z,30.75
2019-05-23T11:46:32.447Z,31.23
2019-05-23T11:47:32.468Z,31.40
2019-05-23T11:48:32.373Z,31.59
2019-05-23T11:49:32.368Z,31.97
2019-05-23T11:50:32.364Z,32.27
2019-05-23T11:51:32.358Z,32.51
2019-05-23T11:52:32.347Z,32.61
2019-05-23T11:53:32.339Z,32.09
2019-05-23T11:54:32.330Z,31.74
2019-05-23T11:55:32.322Z,31.12
2019-05-23T11:56:32.353Z,31.41
2019-05-23T11:57:32.316Z,31.46
2019-05-23T11:58:32.931Z,31.82
2019-05-23T11:59:32.275Z,32.24
2019-05-23T12:00:32.275Z,32.16
2019-05-23T12:01:32.256Z,31.85
2019-05-23T12:02:32.283Z,32.02
2019-05-23T12:03:32.262Z,32.31
2019-05-23T12:04:32.259Z,32.29
2019-05-23T12:05:32.235Z,32.25
2019-05-23T12:06:32.210Z,31.98
2019-05-23T12:07:32.234Z,31.18
2019-05-23T12:08:32.220Z,30.66
2019-05-23T12:09:32.194Z,30.29
2019-05-23T12:10:32.182Z,29.92
2019-05-23T12:11:36.386Z,30.00
2019-05-23T12:12:33.183Z,30.34
2019-05-23T12:13:32.154Z,30.66
2019-05-23T12:14:32.144Z,30.76
2019-05-23T12:15:32.148Z,30.75
2019-05-23T12:16:32.144Z,30.54
2019-05-23T12:17:32.123Z,30.15
2019-05-23T12:18:32.141Z,29.99
2019-05-23T12:19:32.337Z,29.62
2019-05-23T12:20:32.095Z,29.64
2019-05-23T12:21:32.094Z,29.51
2019-05-23T12:22:32.115Z,29.29
2019-05-23T12:23:32.095Z,28.95
2019-05-23T12:24:35.301Z,28.85
2019-05-23T12:25:32.040Z,28.30
2019-05-23T12:26:32.048Z,27.98
2019-05-23T12:27:32.054Z,27.59
2019-05-23T12:28:32.045Z,27.38
2019-05-23T12:29:32.008Z,27.39
2019-05-23T12:30:32.010Z,27.35
2019-05-23T12:31:31.983Z,27.52
2019-05-23T12:32:31.976Z,27.49
2019-05-23T12:33:31.963Z,27.40
2019-05-23T12:34:31.969Z,27.28
2019-05-23T12:35:31.951Z,27.35
2019-05-23T12:36:31.956Z,27.55
2019-05-23T12:37:31.924Z,27.55
2019-05-23T12:38:31.927Z,27.50
2019-05-23T12:39:31.933Z,27.71
2019-05-23T12:40:31.903Z,27.68
2019-05-23T12:41:31.905Z,27.93
2019-05-23T12:42:31.888Z,28.14
2019-05-23T12:43:31.868Z,28.40
2019-05-23T12:44:31.870Z,28.95
2019-05-23T12:45:31.858Z,29.49
2019-05-23T12:46:31.842Z,29.92
2019-05-23T12:47:31.840Z,30.26
2019-05-23T12:48:31.829Z,30.22
2019-05-23T12:49:31.841Z,30.08
2019-05-23T12:50:31.904Z,30.56
2019-05-23T12:51:31.801Z,30.81
2019-05-23T12:52:31.789Z,30.85